sensor_id;sensor_type;location;lat;lon;timestamp;P1;durP1;ratioP1;P2;durP2;ratioP2
75894;SDS011;64573;50.328;15.014;2023-04-25T00:02:04;5.13;;;2.85;;
75894;SDS011;64573;50.328;15.014;2023-04-25T00:04:30;4.63;;;3.20;;
75894;SDS011;64573;50.328;15.014;2023-04-25T00:06:58;4.45;;;3.17;;
75894;SDS011;64573;50.328;15.014;2023-04-25T00:09:26;5.53;;;3.53;;
75894;SDS011;64573;50.328;15.014;2023-04-25T00:11:52;4.65;;;3.25;;
75894;SDS011;64573;50.328;15.014;2023-04-25T00:14:17;6.00;;;3.30;;
75894;SDS011;64573;50.328;15.014;2023-04-25T00:16:43;10.40;;;3.03;;
75894;SDS011;64573;50.328;15.014;2023-04-25T00:19:09;5.90;;;3.60;;
75894;SDS011;64573;50.328;15.014;2023-04-25T00:21:34;6.15;;;3.42;;
75894;SDS011;64573;50.328;15.014;2023-04-25T00:24:00;6.25;;;3.83;;
75894;SDS011;64573;50.328;15.014;2023-04-25T00:26:27;9.68;;;3.72;;
75894;SDS011;64573;50.328;15.014;2023-04-25T00:28:55;4.97;;;3.53;;
75894;SDS011;64573;50.328;15.014;2023-04-25T00:31:20;6.15;;;3.85;;
75894;SDS011;64573;50.328;15.014;2023-04-25T00:33:47;7.55;;;3.80;;
75894;SDS011;64573;50.328;15.014;2023-04-25T00:36:12;5.22;;;3.50;;
75894;SDS011;64573;50.328;15.014;2023-04-25T00:38:38;5.30;;;3.53;;
75894;SDS011;64573;50.328;15.014;2023-04-25T00:41:04;6.03;;;3.75;;
75894;SDS011;64573;50.328;15.014;2023-04-25T00:43:33;10.43;;;3.80;;
75894;SDS011;64573;50.328;15.014;2023-04-25T00:45:59;6.07;;;3.60;;
75894;SDS011;64573;50.328;15.014;2023-04-25T00:48:26;6.05;;;3.75;;
75894;SDS011;64573;50.328;15.014;2023-04-25T00:50:52;6.80;;;4.18;;
75894;SDS011;64573;50.328;15.014;2023-04-25T00:53:19;5.93;;;3.85;;
75894;SDS011;64573;50.328;15.014;2023-04-25T00:55:45;8.15;;;4.70;;
75894;SDS011;64573;50.328;15.014;2023-04-25T00:58:11;7.82;;;4.30;;
75894;SDS011;64573;50.328;15.014;2023-04-25T01:00:36;8.90;;;4.72;;
75894;SDS011;64573;50.328;15.014;2023-04-25T01:03:02;7.03;;;4.78;;
75894;SDS011;64573;50.328;15.014;2023-04-25T01:05:28;8.00;;;4.85;;
75894;SDS011;64573;50.328;15.014;2023-04-25T01:07:54;7.00;;;4.43;;
75894;SDS011;64573;50.328;15.014;2023-04-25T01:10:19;8.98;;;5.13;;
75894;SDS011;64573;50.328;15.014;2023-04-25T01:12:45;10.15;;;5.35;;
75894;SDS011;64573;50.328;15.014;2023-04-25T01:15:10;7.38;;;4.45;;
75894;SDS011;64573;50.328;15.014;2023-04-25T01:17:35;8.88;;;5.07;;
75894;SDS011;64573;50.328;15.014;2023-04-25T01:20:05;7.93;;;4.88;;
75894;SDS011;64573;50.328;15.014;2023-04-25T01:22:32;7.75;;;4.55;;
75894;SDS011;64573;50.328;15.014;2023-04-25T01:24:57;8.35;;;5.13;;
75894;SDS011;64573;50.328;15.014;2023-04-25T01:27:23;7.57;;;4.38;;
75894;SDS011;64573;50.328;15.014;2023-04-25T01:29:50;7.78;;;4.68;;
75894;SDS011;64573;50.328;15.014;2023-04-25T01:32:16;7.35;;;4.97;;
75894;SDS011;64573;50.328;15.014;2023-04-25T01:34:42;9.63;;;5.00;;
75894;SDS011;64573;50.328;15.014;2023-04-25T01:37:07;9.13;;;5.20;;
75894;SDS011;64573;50.328;15.014;2023-04-25T01:39:34;8.32;;;4.82;;
75894;SDS011;64573;50.328;15.014;2023-04-25T01:41:59;9.77;;;5.18;;
75894;SDS011;64573;50.328;15.014;2023-04-25T01:44:25;6.22;;;4.68;;
75894;SDS011;64573;50.328;15.014;2023-04-25T01:46:50;8.45;;;5.13;;
75894;SDS011;64573;50.328;15.014;2023-04-25T01:49:16;9.50;;;5.35;;
75894;SDS011;64573;50.328;15.014;2023-04-25T01:51:42;10.77;;;5.20;;
75894;SDS011;64573;50.328;15.014;2023-04-25T01:54:08;8.48;;;5.85;;
75894;SDS011;64573;50.328;15.014;2023-04-25T01:56:36;10.63;;;5.97;;
75894;SDS011;64573;50.328;15.014;2023-04-25T01:59:02;10.23;;;5.85;;
75894;SDS011;64573;50.328;15.014;2023-04-25T02:01:30;7.82;;;5.38;;
75894;SDS011;64573;50.328;15.014;2023-04-25T02:03:55;10.23;;;5.65;;
75894;SDS011;64573;50.328;15.014;2023-04-25T02:06:21;11.02;;;6.57;;
75894;SDS011;64573;50.328;15.014;2023-04-25T02:08:46;11.65;;;6.40;;
75894;SDS011;64573;50.328;15.014;2023-04-25T02:11:12;10.95;;;6.15;;
75894;SDS011;64573;50.328;15.014;2023-04-25T02:13:37;12.55;;;6.88;;
75894;SDS011;64573;50.328;15.014;2023-04-25T02:16:03;10.02;;;6.53;;
75894;SDS011;64573;50.328;15.014;2023-04-25T02:18:28;10.48;;;6.45;;
75894;SDS011;64573;50.328;15.014;2023-04-25T02:20:53;11.77;;;6.35;;
75894;SDS011;64573;50.328;15.014;2023-04-25T02:23:19;13.95;;;7.63;;
75894;SDS011;64573;50.328;15.014;2023-04-25T02:25:44;12.05;;;6.97;;
75894;SDS011;64573;50.328;15.014;2023-04-25T02:28:10;14.60;;;7.38;;
75894;SDS011;64573;50.328;15.014;2023-04-25T02:30:35;14.90;;;7.45;;
75894;SDS011;64573;50.328;15.014;2023-04-25T02:33:01;11.90;;;7.15;;
75894;SDS011;64573;50.328;15.014;2023-04-25T02:35:26;14.20;;;7.05;;
75894;SDS011;64573;50.328;15.014;2023-04-25T02:37:52;14.13;;;7.63;;
75894;SDS011;64573;50.328;15.014;2023-04-25T02:40:17;13.63;;;7.43;;
75894;SDS011;64573;50.328;15.014;2023-04-25T02:42:42;13.00;;;7.53;;
75894;SDS011;64573;50.328;15.014;2023-04-25T02:45:10;11.55;;;7.53;;
75894;SDS011;64573;50.328;15.014;2023-04-25T02:47:36;15.82;;;7.75;;
75894;SDS011;64573;50.328;15.014;2023-04-25T02:50:01;12.13;;;7.25;;
75894;SDS011;64573;50.328;15.014;2023-04-25T02:52:27;18.83;;;8.60;;
75894;SDS011;64573;50.328;15.014;2023-04-25T02:54:52;17.63;;;8.45;;
75894;SDS011;64573;50.328;15.014;2023-04-25T02:57:17;15.32;;;8.00;;
75894;SDS011;64573;50.328;15.014;2023-04-25T02:59:43;15.20;;;7.78;;
75894;SDS011;64573;50.328;15.014;2023-04-25T03:02:08;15.15;;;7.85;;
75894;SDS011;64573;50.328;15.014;2023-04-25T03:04:35;15.05;;;8.02;;
75894;SDS011;64573;50.328;15.014;2023-04-25T03:07:00;17.23;;;8.18;;
75894;SDS011;64573;50.328;15.014;2023-04-25T03:09:26;16.05;;;8.38;;
75894;SDS011;64573;50.328;15.014;2023-04-25T03:11:51;16.92;;;9.43;;
75894;SDS011;64573;50.328;15.014;2023-04-25T03:14:16;18.33;;;9.10;;
75894;SDS011;64573;50.328;15.014;2023-04-25T03:16:42;19.48;;;9.05;;
75894;SDS011;64573;50.328;15.014;2023-04-25T03:19:07;17.85;;;8.77;;
75894;SDS011;64573;50.328;15.014;2023-04-25T03:21:33;16.45;;;9.02;;
75894;SDS011;64573;50.328;15.014;2023-04-25T03:24:01;20.42;;;8.95;;
75894;SDS011;64573;50.328;15.014;2023-04-25T03:26:27;16.20;;;9.00;;
75894;SDS011;64573;50.328;15.014;2023-04-25T03:28:53;19.23;;;9.10;;
75894;SDS011;64573;50.328;15.014;2023-04-25T03:31:18;16.02;;;8.43;;
75894;SDS011;64573;50.328;15.014;2023-04-25T03:33:44;15.60;;;8.35;;
75894;SDS011;64573;50.328;15.014;2023-04-25T03:36:09;16.13;;;8.50;;
75894;SDS011;64573;50.328;15.014;2023-04-25T03:38:35;32.42;;;9.63;;
75894;SDS011;64573;50.328;15.014;2023-04-25T03:41:00;24.30;;;9.77;;
75894;SDS011;64573;50.328;15.014;2023-04-25T03:43:26;17.95;;;8.23;;
75894;SDS011;64573;50.328;15.014;2023-04-25T03:45:51;17.50;;;8.98;;
75894;SDS011;64573;50.328;15.014;2023-04-25T03:48:17;16.05;;;8.32;;
75894;SDS011;64573;50.328;15.014;2023-04-25T03:50:42;18.08;;;8.32;;
75894;SDS011;64573;50.328;15.014;2023-04-25T03:53:08;16.02;;;8.38;;
75894;SDS011;64573;50.328;15.014;2023-04-25T03:55:33;19.17;;;8.85;;
75894;SDS011;64573;50.328;15.014;2023-04-25T03:57:58;17.60;;;8.70;;
75894;SDS011;64573;50.328;15.014;2023-04-25T04:00:24;15.45;;;8.40;;
75894;SDS011;64573;50.328;15.014;2023-04-25T04:02:50;24.58;;;9.25;;
75894;SDS011;64573;50.328;15.014;2023-04-25T04:05:15;19.27;;;8.68;;
75894;SDS011;64573;50.328;15.014;2023-04-25T04:07:41;22.35;;;9.48;;
75894;SDS011;64573;50.328;15.014;2023-04-25T04:10:07;17.23;;;8.85;;
75894;SDS011;64573;50.328;15.014;2023-04-25T04:12:34;17.23;;;8.77;;
75894;SDS011;64573;50.328;15.014;2023-04-25T04:15:03;22.60;;;9.13;;
75894;SDS011;64573;50.328;15.014;2023-04-25T04:17:29;20.02;;;9.45;;
75894;SDS011;64573;50.328;15.014;2023-04-25T04:19:55;20.60;;;9.15;;
75894;SDS011;64573;50.328;15.014;2023-04-25T04:22:21;18.83;;;9.43;;
75894;SDS011;64573;50.328;15.014;2023-04-25T04:24:47;20.60;;;9.50;;
75894;SDS011;64573;50.328;15.014;2023-04-25T04:27:14;22.27;;;9.60;;
75894;SDS011;64573;50.328;15.014;2023-04-25T04:29:42;25.38;;;9.70;;
75894;SDS011;64573;50.328;15.014;2023-04-25T04:32:08;22.77;;;9.57;;
75894;SDS011;64573;50.328;15.014;2023-04-25T04:34:33;21.17;;;9.10;;
75894;SDS011;64573;50.328;15.014;2023-04-25T04:36:59;21.23;;;10.35;;
75894;SDS011;64573;50.328;15.014;2023-04-25T04:39:25;18.20;;;9.30;;
75894;SDS011;64573;50.328;15.014;2023-04-25T04:41:50;19.10;;;8.52;;
75894;SDS011;64573;50.328;15.014;2023-04-25T04:44:16;21.92;;;9.30;;
75894;SDS011;64573;50.328;15.014;2023-04-25T04:46:42;16.02;;;7.88;;
75894;SDS011;64573;50.328;15.014;2023-04-25T04:49:10;18.05;;;7.60;;
75894;SDS011;64573;50.328;15.014;2023-04-25T04:51:36;13.27;;;7.82;;
75894;SDS011;64573;50.328;15.014;2023-04-25T04:54:02;11.90;;;6.95;;
75894;SDS011;64573;50.328;15.014;2023-04-25T04:56:31;10.32;;;6.25;;
75894;SDS011;64573;50.328;15.014;2023-04-25T04:58:57;13.45;;;6.65;;
75894;SDS011;64573;50.328;15.014;2023-04-25T05:01:23;9.55;;;5.47;;
75894;SDS011;64573;50.328;15.014;2023-04-25T05:03:48;9.10;;;5.97;;
75894;SDS011;64573;50.328;15.014;2023-04-25T05:06:14;10.32;;;5.45;;
75894;SDS011;64573;50.328;15.014;2023-04-25T05:08:41;9.43;;;5.82;;
75894;SDS011;64573;50.328;15.014;2023-04-25T05:11:06;10.30;;;5.47;;
75894;SDS011;64573;50.328;15.014;2023-04-25T05:13:31;10.07;;;5.95;;
75894;SDS011;64573;50.328;15.014;2023-04-25T05:15:57;11.05;;;5.75;;
75894;SDS011;64573;50.328;15.014;2023-04-25T05:18:22;11.15;;;6.53;;
75894;SDS011;64573;50.328;15.014;2023-04-25T05:20:47;11.32;;;6.75;;
75894;SDS011;64573;50.328;15.014;2023-04-25T05:23:13;12.57;;;6.43;;
75894;SDS011;64573;50.328;15.014;2023-04-25T05:25:38;10.40;;;6.60;;
75894;SDS011;64573;50.328;15.014;2023-04-25T05:28:03;12.13;;;7.03;;
75894;SDS011;64573;50.328;15.014;2023-04-25T05:30:30;11.57;;;6.82;;
75894;SDS011;64573;50.328;15.014;2023-04-25T05:32:55;12.32;;;6.70;;
75894;SDS011;64573;50.328;15.014;2023-04-25T05:35:20;14.15;;;6.63;;
75894;SDS011;64573;50.328;15.014;2023-04-25T05:37:46;11.43;;;6.43;;
75894;SDS011;64573;50.328;15.014;2023-04-25T05:40:11;11.13;;;6.30;;
75894;SDS011;64573;50.328;15.014;2023-04-25T05:42:36;11.80;;;6.18;;
75894;SDS011;64573;50.328;15.014;2023-04-25T05:45:02;10.73;;;6.30;;
75894;SDS011;64573;50.328;15.014;2023-04-25T05:47:28;9.82;;;5.80;;
75894;SDS011;64573;50.328;15.014;2023-04-25T05:49:53;14.43;;;6.07;;
75894;SDS011;64573;50.328;15.014;2023-04-25T05:52:18;8.68;;;4.95;;
75894;SDS011;64573;50.328;15.014;2023-04-25T05:54:44;8.75;;;5.35;;
75894;SDS011;64573;50.328;15.014;2023-04-25T05:57:17;6.57;;;4.40;;
75894;SDS011;64573;50.328;15.014;2023-04-25T05:59:47;7.82;;;4.75;;
75894;SDS011;64573;50.328;15.014;2023-04-25T06:02:12;7.95;;;4.90;;
75894;SDS011;64573;50.328;15.014;2023-04-25T06:04:37;9.60;;;4.40;;
75894;SDS011;64573;50.328;15.014;2023-04-25T06:07:03;11.00;;;5.40;;
75894;SDS011;64573;50.328;15.014;2023-04-25T06:09:28;10.48;;;5.45;;
75894;SDS011;64573;50.328;15.014;2023-04-25T06:11:53;6.93;;;4.70;;
75894;SDS011;64573;50.328;15.014;2023-04-25T06:14:19;9.13;;;5.13;;
75894;SDS011;64573;50.328;15.014;2023-04-25T06:16:44;8.77;;;5.47;;
75894;SDS011;64573;50.328;15.014;2023-04-25T06:19:10;8.02;;;5.32;;
75894;SDS011;64573;50.328;15.014;2023-04-25T06:21:35;10.40;;;5.68;;
75894;SDS011;64573;50.328;15.014;2023-04-25T06:24:01;9.32;;;5.40;;
75894;SDS011;64573;50.328;15.014;2023-04-25T06:26:26;9.23;;;5.32;;
75894;SDS011;64573;50.328;15.014;2023-04-25T06:28:52;7.80;;;5.35;;
75894;SDS011;64573;50.328;15.014;2023-04-25T06:31:17;10.73;;;5.68;;
75894;SDS011;64573;50.328;15.014;2023-04-25T06:33:42;8.70;;;5.93;;
75894;SDS011;64573;50.328;15.014;2023-04-25T06:36:08;9.77;;;5.35;;
75894;SDS011;64573;50.328;15.014;2023-04-25T06:38:33;9.20;;;5.63;;
75894;SDS011;64573;50.328;15.014;2023-04-25T06:40:59;9.25;;;5.85;;
75894;SDS011;64573;50.328;15.014;2023-04-25T06:43:25;9.98;;;5.82;;
75894;SDS011;64573;50.328;15.014;2023-04-25T06:45:50;10.15;;;5.90;;
75894;SDS011;64573;50.328;15.014;2023-04-25T06:48:15;11.93;;;6.07;;
75894;SDS011;64573;50.328;15.014;2023-04-25T06:50:41;12.25;;;6.05;;
75894;SDS011;64573;50.328;15.014;2023-04-25T06:53:06;10.52;;;5.60;;
75894;SDS011;64573;50.328;15.014;2023-04-25T06:55:33;9.98;;;6.22;;
75894;SDS011;64573;50.328;15.014;2023-04-25T06:57:59;9.93;;;6.28;;
75894;SDS011;64573;50.328;15.014;2023-04-25T07:00:25;8.90;;;5.75;;
75894;SDS011;64573;50.328;15.014;2023-04-25T07:02:50;9.60;;;5.50;;
75894;SDS011;64573;50.328;15.014;2023-04-25T07:05:16;10.90;;;6.13;;
75894;SDS011;64573;50.328;15.014;2023-04-25T07:07:41;9.02;;;5.85;;
75894;SDS011;64573;50.328;15.014;2023-04-25T07:10:06;9.43;;;6.10;;
75894;SDS011;64573;50.328;15.014;2023-04-25T07:12:32;8.27;;;5.78;;
75894;SDS011;64573;50.328;15.014;2023-04-25T07:14:57;9.48;;;5.60;;
75894;SDS011;64573;50.328;15.014;2023-04-25T07:17:23;8.43;;;5.70;;
75894;SDS011;64573;50.328;15.014;2023-04-25T07:19:48;10.20;;;6.00;;
75894;SDS011;64573;50.328;15.014;2023-04-25T07:22:14;9.32;;;5.70;;
75894;SDS011;64573;50.328;15.014;2023-04-25T07:24:39;10.60;;;5.78;;
75894;SDS011;64573;50.328;15.014;2023-04-25T07:27:04;8.05;;;5.68;;
75894;SDS011;64573;50.328;15.014;2023-04-25T07:29:30;7.43;;;5.30;;
75894;SDS011;64573;50.328;15.014;2023-04-25T07:31:56;9.15;;;5.80;;
75894;SDS011;64573;50.328;15.014;2023-04-25T07:34:22;12.25;;;5.82;;
75894;SDS011;64573;50.328;15.014;2023-04-25T07:36:47;13.77;;;5.80;;
75894;SDS011;64573;50.328;15.014;2023-04-25T07:39:12;12.40;;;6.85;;
75894;SDS011;64573;50.328;15.014;2023-04-25T07:41:38;7.35;;;5.63;;
75894;SDS011;64573;50.328;15.014;2023-04-25T07:44:03;9.35;;;5.72;;
75894;SDS011;64573;50.328;15.014;2023-04-25T07:46:29;9.35;;;6.07;;
75894;SDS011;64573;50.328;15.014;2023-04-25T07:48:54;9.40;;;5.43;;
75894;SDS011;64573;50.328;15.014;2023-04-25T07:51:19;8.25;;;5.63;;
75894;SDS011;64573;50.328;15.014;2023-04-25T07:53:47;8.60;;;6.10;;
75894;SDS011;64573;50.328;15.014;2023-04-25T07:56:12;9.88;;;5.60;;
75894;SDS011;64573;50.328;15.014;2023-04-25T07:58:37;8.82;;;5.70;;
75894;SDS011;64573;50.328;15.014;2023-04-25T08:01:03;7.72;;;5.63;;
75894;SDS011;64573;50.328;15.014;2023-04-25T08:03:28;8.18;;;5.70;;
75894;SDS011;64573;50.328;15.014;2023-04-25T08:05:53;10.57;;;6.20;;
75894;SDS011;64573;50.328;15.014;2023-04-25T08:08:19;9.30;;;6.20;;
75894;SDS011;64573;50.328;15.014;2023-04-25T08:10:44;9.07;;;5.65;;
75894;SDS011;64573;50.328;15.014;2023-04-25T08:13:10;11.48;;;5.55;;
75894;SDS011;64573;50.328;15.014;2023-04-25T08:15:35;9.60;;;5.78;;
75894;SDS011;64573;50.328;15.014;2023-04-25T08:18:00;8.13;;;6.30;;
75894;SDS011;64573;50.328;15.014;2023-04-25T08:20:25;13.73;;;6.53;;
75894;SDS011;64573;50.328;15.014;2023-04-25T08:22:51;9.90;;;6.55;;
75894;SDS011;64573;50.328;15.014;2023-04-25T08:25:16;9.55;;;5.72;;
75894;SDS011;64573;50.328;15.014;2023-04-25T08:27:42;9.27;;;6.13;;
75894;SDS011;64573;50.328;15.014;2023-04-25T08:30:08;11.25;;;6.40;;
75894;SDS011;64573;50.328;15.014;2023-04-25T08:32:33;8.82;;;5.90;;
75894;SDS011;64573;50.328;15.014;2023-04-25T08:34:59;10.60;;;6.40;;
75894;SDS011;64573;50.328;15.014;2023-04-25T08:37:24;8.55;;;5.65;;
75894;SDS011;64573;50.328;15.014;2023-04-25T08:39:49;11.30;;;6.30;;
75894;SDS011;64573;50.328;15.014;2023-04-25T08:42:17;12.27;;;6.25;;
75894;SDS011;64573;50.328;15.014;2023-04-25T08:44:42;8.43;;;5.82;;
75894;SDS011;64573;50.328;15.014;2023-04-25T08:47:10;9.60;;;5.72;;
75894;SDS011;64573;50.328;15.014;2023-04-25T08:49:35;8.50;;;5.47;;
75894;SDS011;64573;50.328;15.014;2023-04-25T08:52:02;8.80;;;6.18;;
75894;SDS011;64573;50.328;15.014;2023-04-25T08:54:30;11.23;;;5.78;;
75894;SDS011;64573;50.328;15.014;2023-04-25T08:56:56;8.85;;;5.60;;
75894;SDS011;64573;50.328;15.014;2023-04-25T08:59:23;9.23;;;5.65;;
75894;SDS011;64573;50.328;15.014;2023-04-25T09:01:49;9.50;;;5.70;;
75894;SDS011;64573;50.328;15.014;2023-04-25T09:04:15;9.98;;;6.03;;
75894;SDS011;64573;50.328;15.014;2023-04-25T09:06:40;9.63;;;5.65;;
75894;SDS011;64573;50.328;15.014;2023-04-25T09:09:07;10.20;;;5.65;;
75894;SDS011;64573;50.328;15.014;2023-04-25T09:11:36;8.18;;;5.95;;
75894;SDS011;64573;50.328;15.014;2023-04-25T09:14:11;8.30;;;5.93;;
75894;SDS011;64573;50.328;15.014;2023-04-25T09:19:25;8.68;;;5.38;;
75894;SDS011;64573;50.328;15.014;2023-04-25T09:21:56;8.90;;;5.03;;
75894;SDS011;64573;50.328;15.014;2023-04-25T09:24:36;10.00;;;5.15;;
75894;SDS011;64573;50.328;15.014;2023-04-25T09:27:06;7.18;;;5.13;;
75894;SDS011;64573;50.328;15.014;2023-04-25T09:29:36;8.45;;;5.50;;
75894;SDS011;64573;50.328;15.014;2023-04-25T09:32:10;6.38;;;4.85;;
75894;SDS011;64573;50.328;15.014;2023-04-25T09:34:47;8.48;;;5.15;;
75894;SDS011;64573;50.328;15.014;2023-04-25T09:37:18;6.82;;;4.80;;
75894;SDS011;64573;50.328;15.014;2023-04-25T09:39:45;9.52;;;5.22;;
75894;SDS011;64573;50.328;15.014;2023-04-25T09:42:13;8.02;;;5.70;;
75894;SDS011;64573;50.328;15.014;2023-04-25T09:44:46;6.10;;;4.75;;
75894;SDS011;64573;50.328;15.014;2023-04-25T09:47:12;10.10;;;4.97;;
75894;SDS011;64573;50.328;15.014;2023-04-25T09:49:39;8.40;;;5.28;;
75894;SDS011;64573;50.328;15.014;2023-04-25T09:52:09;7.90;;;5.38;;
75894;SDS011;64573;50.328;15.014;2023-04-25T09:54:39;8.20;;;5.18;;
75894;SDS011;64573;50.328;15.014;2023-04-25T09:57:09;7.70;;;5.20;;
75894;SDS011;64573;50.328;15.014;2023-04-25T09:59:38;5.72;;;4.35;;
75894;SDS011;64573;50.328;15.014;2023-04-25T10:02:05;5.07;;;4.30;;
75894;SDS011;64573;50.328;15.014;2023-04-25T10:04:33;7.80;;;4.60;;
75894;SDS011;64573;50.328;15.014;2023-04-25T10:06:59;8.02;;;4.45;;
75894;SDS011;64573;50.328;15.014;2023-04-25T10:09:26;5.78;;;4.40;;
75894;SDS011;64573;50.328;15.014;2023-04-25T10:11:56;10.52;;;4.60;;
75894;SDS011;64573;50.328;15.014;2023-04-25T10:14:23;5.97;;;4.85;;
75894;SDS011;64573;50.328;15.014;2023-04-25T10:16:49;9.25;;;5.60;;
75894;SDS011;64573;50.328;15.014;2023-04-25T10:19:18;9.07;;;4.88;;
75894;SDS011;64573;50.328;15.014;2023-04-25T10:21:50;6.32;;;4.60;;
75894;SDS011;64573;50.328;15.014;2023-04-25T10:24:18;6.93;;;4.67;;
75894;SDS011;64573;50.328;15.014;2023-04-25T10:26:44;6.47;;;4.70;;
75894;SDS011;64573;50.328;15.014;2023-04-25T10:29:11;6.55;;;4.50;;
75894;SDS011;64573;50.328;15.014;2023-04-25T10:31:44;8.50;;;4.68;;
75894;SDS011;64573;50.328;15.014;2023-04-25T10:34:12;7.53;;;4.65;;
75894;SDS011;64573;50.328;15.014;2023-04-25T10:36:38;7.45;;;4.55;;
75894;SDS011;64573;50.328;15.014;2023-04-25T10:39:05;8.18;;;4.55;;
75894;SDS011;64573;50.328;15.014;2023-04-25T10:41:47;5.65;;;4.03;;
75894;SDS011;64573;50.328;15.014;2023-04-25T10:44:19;4.65;;;3.45;;
75894;SDS011;64573;50.328;15.014;2023-04-25T10:46:45;5.38;;;3.70;;
75894;SDS011;64573;50.328;15.014;2023-04-25T10:49:10;6.68;;;3.95;;
75894;SDS011;64573;50.328;15.014;2023-04-25T10:52:10;4.60;;;3.47;;
75894;SDS011;64573;50.328;15.014;2023-04-25T10:54:39;6.47;;;3.63;;
75894;SDS011;64573;50.328;15.014;2023-04-25T10:57:29;5.45;;;4.03;;
75894;SDS011;64573;50.328;15.014;2023-04-25T11:00:13;7.03;;;4.15;;
75894;SDS011;64573;50.328;15.014;2023-04-25T11:02:40;5.93;;;4.20;;
75894;SDS011;64573;50.328;15.014;2023-04-25T11:05:16;6.78;;;4.55;;
75894;SDS011;64573;50.328;15.014;2023-04-25T11:08:01;5.72;;;4.75;;
75894;SDS011;64573;50.328;15.014;2023-04-25T11:10:32;6.18;;;4.03;;
75894;SDS011;64573;50.328;15.014;2023-04-25T11:13:00;5.65;;;4.10;;
75894;SDS011;64573;50.328;15.014;2023-04-25T11:15:26;8.30;;;4.65;;
75894;SDS011;64573;50.328;15.014;2023-04-25T11:17:52;8.63;;;5.40;;
75894;SDS011;64573;50.328;15.014;2023-04-25T11:20:17;7.38;;;4.60;;
75894;SDS011;64573;50.328;15.014;2023-04-25T11:22:44;5.10;;;3.90;;
75894;SDS011;64573;50.328;15.014;2023-04-25T11:25:11;5.82;;;3.70;;
75894;SDS011;64573;50.328;15.014;2023-04-25T11:27:49;6.82;;;4.20;;
75894;SDS011;64573;50.328;15.014;2023-04-25T11:30:19;6.07;;;4.10;;
75894;SDS011;64573;50.328;15.014;2023-04-25T11:32:45;6.40;;;4.80;;
75894;SDS011;64573;50.328;15.014;2023-04-25T11:35:11;10.52;;;5.15;;
75894;SDS011;64573;50.328;15.014;2023-04-25T11:37:40;7.72;;;5.40;;
75894;SDS011;64573;50.328;15.014;2023-04-25T11:40:07;7.80;;;5.70;;
75894;SDS011;64573;50.328;15.014;2023-04-25T11:42:36;8.75;;;5.85;;
75894;SDS011;64573;50.328;15.014;2023-04-25T11:45:02;7.80;;;6.05;;
75894;SDS011;64573;50.328;15.014;2023-04-25T11:47:32;9.57;;;6.00;;
75894;SDS011;64573;50.328;15.014;2023-04-25T11:49:59;9.35;;;6.38;;
75894;SDS011;64573;50.328;15.014;2023-04-25T11:52:34;13.52;;;8.70;;
75894;SDS011;64573;50.328;15.014;2023-04-25T11:55:26;14.32;;;7.57;;
75894;SDS011;64573;50.328;15.014;2023-04-25T11:57:55;15.60;;;9.65;;
75894;SDS011;64573;50.328;15.014;2023-04-25T12:00:20;12.88;;;7.95;;
75894;SDS011;64573;50.328;15.014;2023-04-25T12:02:50;18.08;;;8.75;;
75894;SDS011;64573;50.328;15.014;2023-04-25T12:05:17;14.07;;;7.60;;
75894;SDS011;64573;50.328;15.014;2023-04-25T12:07:43;8.13;;;6.18;;
75894;SDS011;64573;50.328;15.014;2023-04-25T12:12:36;12.55;;;6.97;;
75894;SDS011;64573;50.328;15.014;2023-04-25T12:15:11;9.93;;;6.22;;
75894;SDS011;64573;50.328;15.014;2023-04-25T12:18:01;14.63;;;5.97;;
75894;SDS011;64573;50.328;15.014;2023-04-25T12:20:27;12.80;;;6.78;;
75894;SDS011;64573;50.328;15.014;2023-04-25T12:22:52;12.82;;;7.03;;
75894;SDS011;64573;50.328;15.014;2023-04-25T12:25:51;10.02;;;6.57;;
75894;SDS011;64573;50.328;15.014;2023-04-25T12:28:14;9.85;;;5.82;;
75894;SDS011;64573;50.328;15.014;2023-04-25T12:30:54;10.98;;;6.07;;
75894;SDS011;64573;50.328;15.014;2023-04-25T12:33:23;9.35;;;6.88;;
75894;SDS011;64573;50.328;15.014;2023-04-25T12:35:49;9.13;;;5.88;;
75894;SDS011;64573;50.328;15.014;2023-04-25T12:38:21;10.13;;;6.97;;
75894;SDS011;64573;50.328;15.014;2023-04-25T12:40:51;11.35;;;7.15;;
75894;SDS011;64573;50.328;15.014;2023-04-25T12:43:17;7.65;;;5.68;;
75894;SDS011;64573;50.328;15.014;2023-04-25T12:45:43;8.27;;;6.25;;
75894;SDS011;64573;50.328;15.014;2023-04-25T12:48:09;9.43;;;5.63;;
75894;SDS011;64573;50.328;15.014;2023-04-25T12:50:35;8.43;;;5.82;;
75894;SDS011;64573;50.328;15.014;2023-04-25T12:53:00;10.57;;;5.53;;
75894;SDS011;64573;50.328;15.014;2023-04-25T12:55:25;8.95;;;5.20;;
75894;SDS011;64573;50.328;15.014;2023-04-25T12:57:51;6.53;;;4.97;;
75894;SDS011;64573;50.328;15.014;2023-04-25T13:00:16;11.90;;;5.43;;
75894;SDS011;64573;50.328;15.014;2023-04-25T13:02:44;9.55;;;5.15;;
75894;SDS011;64573;50.328;15.014;2023-04-25T13:05:11;13.70;;;6.57;;
75894;SDS011;64573;50.328;15.014;2023-04-25T13:07:36;8.23;;;4.25;;
75894;SDS011;64573;50.328;15.014;2023-04-25T13:10:01;10.77;;;5.28;;
75894;SDS011;64573;50.328;15.014;2023-04-25T13:12:27;8.38;;;5.07;;
75894;SDS011;64573;50.328;15.014;2023-04-25T13:14:53;6.55;;;4.28;;
75894;SDS011;64573;50.328;15.014;2023-04-25T13:17:18;5.55;;;3.30;;
75894;SDS011;64573;50.328;15.014;2023-04-25T13:19:44;5.38;;;3.40;;
75894;SDS011;64573;50.328;15.014;2023-04-25T13:22:09;7.50;;;3.70;;
75894;SDS011;64573;50.328;15.014;2023-04-25T13:24:34;5.03;;;2.88;;
75894;SDS011;64573;50.328;15.014;2023-04-25T13:27:00;4.10;;;2.90;;
75894;SDS011;64573;50.328;15.014;2023-04-25T13:29:26;5.35;;;2.50;;
75894;SDS011;64573;50.328;15.014;2023-04-25T13:31:51;4.03;;;2.67;;
75894;SDS011;64573;50.328;15.014;2023-04-25T13:34:17;4.72;;;2.58;;
75894;SDS011;64573;50.328;15.014;2023-04-25T13:36:42;4.47;;;2.30;;
75894;SDS011;64573;50.328;15.014;2023-04-25T13:39:07;5.00;;;2.70;;
75894;SDS011;64573;50.328;15.014;2023-04-25T13:41:33;4.22;;;2.58;;
75894;SDS011;64573;50.328;15.014;2023-04-25T13:43:58;6.20;;;3.50;;
75894;SDS011;64573;50.328;15.014;2023-04-25T13:46:24;5.00;;;3.15;;
75894;SDS011;64573;50.328;15.014;2023-04-25T13:48:50;4.70;;;3.22;;
75894;SDS011;64573;50.328;15.014;2023-04-25T13:51:15;5.63;;;3.22;;
75894;SDS011;64573;50.328;15.014;2023-04-25T13:53:42;2.88;;;2.58;;
75894;SDS011;64573;50.328;15.014;2023-04-25T13:56:07;4.35;;;2.33;;
75894;SDS011;64573;50.328;15.014;2023-04-25T13:58:33;4.00;;;2.55;;
75894;SDS011;64573;50.328;15.014;2023-04-25T14:00:58;5.93;;;2.83;;
75894;SDS011;64573;50.328;15.014;2023-04-25T14:03:24;3.92;;;2.63;;
75894;SDS011;64573;50.328;15.014;2023-04-25T14:05:49;4.78;;;2.80;;
75894;SDS011;64573;50.328;15.014;2023-04-25T14:08:15;4.03;;;2.70;;
75894;SDS011;64573;50.328;15.014;2023-04-25T14:10:41;4.00;;;2.92;;
75894;SDS011;64573;50.328;15.014;2023-04-25T14:13:06;4.10;;;2.97;;
75894;SDS011;64573;50.328;15.014;2023-04-25T14:15:32;3.40;;;2.55;;
75894;SDS011;64573;50.328;15.014;2023-04-25T14:17:58;6.70;;;2.60;;
75894;SDS011;64573;50.328;15.014;2023-04-25T14:20:24;3.28;;;2.97;;
75894;SDS011;64573;50.328;15.014;2023-04-25T14:22:49;3.85;;;2.80;;
75894;SDS011;64573;50.328;15.014;2023-04-25T14:25:15;3.47;;;2.47;;
75894;SDS011;64573;50.328;15.014;2023-04-25T14:27:40;5.95;;;3.22;;
75894;SDS011;64573;50.328;15.014;2023-04-25T14:30:06;4.55;;;3.22;;
75894;SDS011;64573;50.328;15.014;2023-04-25T14:32:34;4.25;;;3.20;;